TAF

TERMINAL AERODROME FORECAST
STASIUN METEOROLOGI HANG NADIM BATAM

ADDS - METARS form results

(2016 UTC 15 September 2019)
Data provider http://aviationweather.gov/metar/data/
 
METAR text: WIDD 152000Z AUTO 14003KT 9999NDV FEW021 BKN028 OVC034 26/24 Q1011
Conditions at: WIDD (HANG NADIM , ID) observed 2000 UTC 15 September 2019
Temperature: 26.0°C (79°F)
Dewpoint: 24.0°C (75°F) [RH = 89%]
Pressure (altimeter): 29.85 inches Hg (1011.0 mb)
Winds: from the SE (140 degrees) at 3 MPH (3 knots; 1.5 m/s)
Visibility: missing
Ceiling: 2800 feet AGL
Clouds: few clouds at 2100 feet AGL
broken clouds at 2800 feet AGL
overcast cloud deck at 3400 feet AGL
Weather: no significant weather observed at this time

METAR text: WIDD 151930Z AUTO 13002KT 9999NDV FEW020 BKN030 OVC035 25/23 Q1011
Conditions at: WIDD (HANG NADIM , ID) observed 1930 UTC 15 September 2019
Temperature: 25.0°C (77°F)
Dewpoint: 23.0°C (73°F) [RH = 89%]
Pressure (altimeter): 29.85 inches Hg (1011.0 mb)
Winds: from the SE (130 degrees) at 2 MPH (2 knots; 1.0 m/s)
Visibility: missing
Ceiling: 3000 feet AGL
Clouds: few clouds at 2000 feet AGL
broken clouds at 3000 feet AGL
overcast cloud deck at 3500 feet AGL
Weather: no significant weather observed at this time

Forecast for: WIDD (HANG NADIM , ID)
Text: TAF WIDD 151700Z 1518/1618 14005KT 9000 FEW014
Forecast period: 1800 UTC 15 September 2019 to 1800 UTC 16 September 2019
Forecast type: FROM: standard forecast or significant change
Winds: from the SE (140 degrees) at 6 MPH (5 knots; 2.6 m/s)
Visibility: 6 miles (9 km)
Ceiling: at least 12,000 feet AGL
Clouds: few clouds at 1400 feet AGL
Weather: no significant weather forecast for this period

Informasi TAF dapat diakses juga di http://aviation.bmkg.go.id